Bayside, Wisconsin
Current Conditions -  °F | °C
As of 11:45 AM on Monday 26 Jan 2015 (Local Time) from KMWC Reporting Station
Overcast Overcast  
Wind Chill: 19°   Ceiling: 5000
Heat Index: 27°   Visibility: 10mi
Dew Point: 14°   Wind: 7mph
Humidity: 59%   Direction: 170°S
Pressure: 29.9"   Gusts: NA
Location:  43.1576°N, 87.9144°W
Report Text: KMWC 261745Z AUTO 17006KT 10SM OVC050 M03/M10 A2990
Loading
Personal Weather Stations






























Interactive Weather Map New forecast layout! Learn more

10-Day Weather Forecast

Advertisements
Track Severe Weather on mobile